Time;durP1;ratioP1;P1;durP2;ratioP2;P2;SDS_P1;SDS_P2;PMS_P1;PMS_P2;Temp;Humidity;BMP_temperature;BMP_pressure;BME280_temperature;BME280_humidity;BME280_pressure;Samples;Min_cycle;Max_cycle;Signal;HPM_P1;HPM_P2
2022/05/16 00:00:07;;;;;;;2.90;2.33;;;;;;;-145.23;100.00;58621.06;5082986;28;20227;-54
2022/05/16 00:02:33;;;;;;;5.03;2.30;;;;;;;-145.23;100.00;58621.06;5081633;28;21160;-56
2022/05/16 00:05:01;;;;;;;5.43;2.20;;;;;;;-145.23;100.00;58621.06;5085659;28;20271;-52
2022/05/16 00:07:28;;;;;;;4.97;2.40;;;;;;;-145.23;100.00;58621.06;5097794;28;20226;-53
2022/05/16 00:09:54;;;;;;;3.47;3.08;;;;;;;-145.23;100.00;58621.06;5103258;27;20803;-52
2022/05/16 00:12:21;;;;;;;6.15;2.65;;;;;;;-145.23;100.00;58621.06;5104175;27;20344;-51
2022/05/16 00:14:47;;;;;;;4.10;2.63;;;;;;;-145.23;100.00;58621.06;5091856;28;20682;-52
2022/05/16 00:17:14;;;;;;;4.38;2.40;;;;;;;-145.23;100.00;58621.06;5097098;27;20230;-52
2022/05/16 00:19:41;;;;;;;6.85;2.70;;;;;;;-145.23;100.00;58621.06;5096080;27;20278;-52
2022/05/16 00:22:09;;;;;;;3.15;2.35;;;;;;;-145.23;100.00;58621.06;5106608;27;20286;-51
2022/05/16 00:24:35;;;;;;;6.25;2.80;;;;;;;-145.23;100.00;58621.06;5083538;28;20246;-52
2022/05/16 00:27:02;;;;;;;6.35;2.60;;;;;;;-145.23;100.00;58621.06;5089004;28;20754;-52
2022/05/16 00:29:29;;;;;;;8.82;2.60;;;;;;;-145.23;100.00;58621.06;5075762;28;20318;-52
2022/05/16 00:31:55;;;;;;;3.70;2.00;;;;;;;-145.23;100.00;58621.06;5081886;28;20234;-53
2022/05/16 00:34:22;;;;;;;5.82;2.22;;;;;;;-145.23;100.00;58621.06;5082277;28;21031;-52
2022/05/16 00:36:48;;;;;;;4.13;2.20;;;;;;;-145.23;100.00;58621.06;5085151;28;20250;-52
2022/05/16 00:39:17;;;;;;;6.38;3.03;;;;;;;-145.23;100.00;58621.06;5091394;27;20724;-51
2022/05/16 00:41:45;;;;;;;4.18;2.50;;;;;;;-145.23;100.00;58621.06;5082212;28;20234;-51
2022/05/16 00:44:12;;;;;;;3.22;2.17;;;;;;;-145.23;100.00;58621.06;5085508;28;20231;-51
2022/05/16 00:46:38;;;;;;;5.00;2.72;;;;;;;-145.23;100.00;58621.06;5090579;28;20230;-51
2022/05/16 00:49:09;;;;;;;7.70;3.08;;;;;;;-145.23;100.00;58621.06;5090488;27;20225;-53
2022/05/16 00:51:41;;;;;;;4.20;2.28;;;;;;;-145.23;100.00;58621.06;5087611;28;20242;-52
2022/05/16 00:54:12;;;;;;;4.45;2.25;;;;;;;-145.23;100.00;58621.06;5079267;28;20223;-52
2022/05/16 00:56:39;;;;;;;8.82;3.80;;;;;;;-145.23;100.00;58621.06;5090645;28;20246;-50
2022/05/16 00:59:06;;;;;;;6.25;3.20;;;;;;;-145.23;100.00;58621.06;5080810;28;20254;-51
2022/05/16 01:07:03;;;;;;;7.95;3.75;;;;;;;-145.23;100.00;58621.06;5084401;28;20253;-58
2022/05/16 01:09:30;;;;;;;8.55;3.83;;;;;;;-145.23;100.00;58621.06;5086569;28;20239;-52
2022/05/16 01:11:58;;;;;;;5.20;3.40;;;;;;;-145.23;100.00;58621.06;5085091;28;20234;-53
2022/05/16 01:14:47;;;;;;;4.95;3.25;;;;;;;-145.23;100.00;58621.06;5079880;28;20235;-52
2022/05/16 01:17:14;;;;;;;8.52;3.65;;;;;;;-145.23;100.00;58621.06;5092188;28;20223;-51
2022/05/16 01:19:40;;;;;;;5.53;3.80;;;;;;;-145.23;100.00;58621.06;5082503;28;20231;-51
2022/05/16 01:22:15;;;;;;;5.25;3.40;;;;;;;-145.23;100.00;58621.06;5085907;28;20234;-51
2022/05/16 01:24:41;;;;;;;4.28;3.10;;;;;;;-145.23;100.00;58621.06;5084763;28;20287;-52
2022/05/16 01:27:08;;;;;;;4.75;3.67;;;;;;;-145.23;100.00;58621.06;5070728;28;20608;-53
2022/05/16 01:29:34;;;;;;;4.53;2.90;;;;;;;-145.23;100.00;58621.06;5081259;28;20246;-52
2022/05/16 01:32:00;;;;;;;4.38;2.70;;;;;;;-145.23;100.00;58621.06;5079802;28;20237;-51
2022/05/16 01:34:27;;;;;;;4.78;3.03;;;;;;;-145.23;100.00;58621.06;5083572;28;20222;-51
2022/05/16 01:36:53;;;;;;;5.90;2.63;;;;;;;-145.23;100.00;58621.06;5082925;28;20226;-52
2022/05/16 01:39:21;;;;;;;3.22;2.45;;;;;;;-145.23;100.00;58621.06;5086915;28;20235;-51
2022/05/16 01:41:47;;;;;;;4.72;2.72;;;;;;;-145.23;100.00;58621.06;5086460;28;20242;-51
2022/05/16 01:44:14;;;;;;;6.75;2.83;;;;;;;-145.23;100.00;58621.06;5095491;28;20363;-52
2022/05/16 01:46:40;;;;;;;4.65;2.30;;;;;;;-145.23;100.00;58621.06;5095980;28;20223;-50
2022/05/16 01:49:09;;;;;;;4.90;2.40;;;;;;;-145.23;100.00;58621.06;5087700;28;20739;-52
2022/05/16 01:51:36;;;;;;;7.72;3.20;;;;;;;-145.23;100.00;58621.06;5092826;28;20597;-53
2022/05/16 01:54:03;;;;;;;3.35;2.20;;;;;;;-145.23;100.00;58621.06;5083809;28;20219;-52
2022/05/16 01:56:31;;;;;;;6.82;2.72;;;;;;;-145.23;100.00;58621.06;5088103;28;20321;-51
2022/05/16 01:58:58;;;;;;;6.72;2.70;;;;;;;-145.23;100.00;58621.06;5093681;28;20284;-51
2022/05/16 02:01:24;;;;;;;9.00;3.10;;;;;;;-145.23;100.00;58621.06;5097122;28;20226;-50
2022/05/16 02:03:51;;;;;;;4.53;2.40;;;;;;;-145.23;100.00;58621.06;5075650;28;20230;-54
2022/05/16 02:06:18;;;;;;;2.92;2.22;;;;;;;-145.23;100.00;58621.06;5074701;28;20273;-51
2022/05/16 02:08:44;;;;;;;4.38;2.80;;;;;;;-145.23;100.00;58621.06;5076624;28;20611;-53
2022/05/16 02:11:11;;;;;;;5.07;2.45;;;;;;;-145.23;100.00;58621.06;5079702;28;20235;-52
2022/05/16 02:13:40;;;;;;;3.65;2.50;;;;;;;-145.23;100.00;58621.06;5089486;28;20217;-52
2022/05/16 02:16:08;;;;;;;3.25;2.20;;;;;;;-145.23;100.00;58621.06;5083363;28;20226;-52
2022/05/16 02:18:34;;;;;;;7.65;3.17;;;;;;;-145.23;100.00;58621.06;5084413;28;20257;-53
2022/05/16 02:26:24;;;;;;;4.60;2.45;;;;;;;-145.23;100.00;58621.06;5081742;28;20228;-52
2022/05/16 02:28:52;;;;;;;4.95;2.10;;;;;;;-145.23;100.00;58621.06;5083937;28;20300;-50
2022/05/16 02:31:19;;;;;;;5.93;2.72;;;;;;;-145.23;100.00;58621.06;5092350;28;20411;-51
2022/05/16 02:33:46;;;;;;;4.20;2.67;;;;;;;-145.23;100.00;58621.06;5099848;28;20241;-50
2022/05/16 02:36:12;;;;;;;4.90;2.45;;;;;;;-145.23;100.00;58621.06;5078946;28;20227;-51
2022/05/16 02:38:39;;;;;;;6.10;2.08;;;;;;;-145.23;100.00;58621.06;5084391;28;20223;-52
2022/05/16 02:41:05;;;;;;;7.53;2.75;;;;;;;-145.23;100.00;58621.06;5085525;28;20296;-51
2022/05/16 02:43:31;;;;;;;3.13;1.88;;;;;;;-145.23;100.00;58621.06;5071016;28;20751;-56
2022/05/16 02:46:02;;;;;;;5.47;2.25;;;;;;;-145.23;100.00;58621.06;5073874;28;20253;-53
2022/05/16 02:48:28;;;;;;;4.90;2.45;;;;;;;-145.23;100.00;58621.06;5093237;28;20304;-52
2022/05/16 02:50:54;;;;;;;2.33;1.50;;;;;;;-145.23;100.00;58621.06;5099712;28;20800;-52
2022/05/16 02:53:21;;;;;;;4.55;2.40;;;;;;;-145.23;100.00;58621.06;5107447;28;20280;-53
2022/05/16 02:55:47;;;;;;;5.40;2.72;;;;;;;-145.23;100.00;58621.06;5093320;28;20275;-52
2022/05/16 02:58:14;;;;;;;5.97;2.30;;;;;;;-145.23;100.00;58621.06;5092182;28;20230;-51
2022/05/16 03:00:40;;;;;;;2.75;2.13;;;;;;;-145.23;100.00;58621.06;5105435;28;20241;-51
2022/05/16 03:03:08;;;;;;;6.05;2.40;;;;;;;-145.23;100.00;58621.06;5087696;28;20279;-52
2022/05/16 03:05:34;;;;;;;5.47;2.53;;;;;;;-145.23;100.00;58621.06;5107222;28;20238;-53
2022/05/16 03:08:00;;;;;;;5.07;3.15;;;;;;;-145.23;100.00;58621.06;5105244;28;20222;-52
2022/05/16 03:10:28;;;;;;;5.82;2.25;;;;;;;-145.23;100.00;58621.06;5098262;28;20257;-50
2022/05/16 03:12:54;;;;;;;3.50;2.63;;;;;;;-145.23;100.00;58621.06;5118529;28;20328;-52
2022/05/16 03:15:20;;;;;;;5.28;2.35;;;;;;;-145.23;100.00;58621.06;5111883;28;20226;-51
2022/05/16 03:17:47;;;;;;;4.55;2.72;;;;;;;-145.23;100.00;58621.06;5116985;28;20226;-55
2022/05/16 03:20:16;;;;;;;3.22;2.72;;;;;;;-145.23;100.00;58621.06;5107201;28;20230;-52
2022/05/16 03:22:42;;;;;;;5.35;3.05;;;;;;;-145.23;100.00;58621.06;5101485;28;20223;-52
2022/05/16 03:25:10;;;;;;;4.32;1.98;;;;;;;-145.23;100.00;58621.06;5106409;28;20225;-51
2022/05/16 03:27:36;;;;;;;3.45;2.10;;;;;;;-145.23;100.00;58621.06;5105752;28;20238;-53
2022/05/16 03:30:03;;;;;;;4.70;2.22;;;;;;;-145.23;100.00;58621.06;5106243;28;20234;-56
2022/05/16 03:32:29;;;;;;;5.22;2.28;;;;;;;-145.23;100.00;58621.06;5099813;28;21761;-57
2022/05/16 03:34:55;;;;;;;6.70;2.33;;;;;;;-145.23;100.00;58621.06;5091961;28;20751;-52
2022/05/16 03:37:23;;;;;;;4.15;2.28;;;;;;;-145.23;100.00;58621.06;5102352;28;20255;-54
2022/05/16 03:42:34;;;;;;;5.82;2.47;;;;;;;-145.23;100.00;58621.06;5104801;28;20274;-54
2022/05/16 03:45:01;;;;;;;3.55;2.08;;;;;;;-145.23;100.00;58621.06;5114024;28;20229;-54
2022/05/16 03:47:27;;;;;;;3.35;2.38;;;;;;;-145.23;100.00;58621.06;5106294;28;20573;-52
2022/05/16 03:49:54;;;;;;;3.58;2.40;;;;;;;-145.23;100.00;58621.06;5101918;28;20841;-53
2022/05/16 03:52:22;;;;;;;3.03;2.33;;;;;;;-145.23;100.00;58621.06;5099888;28;20241;-51
2022/05/16 03:54:48;;;;;;;6.07;2.63;;;;;;;-145.23;100.00;58621.06;5110271;28;20237;-52
2022/05/16 03:57:15;;;;;;;5.07;3.05;;;;;;;-145.23;100.00;58621.06;5110601;28;20321;-52
2022/05/16 03:59:41;;;;;;;4.05;2.63;;;;;;;-145.23;100.00;58621.06;5110244;28;20234;-51
2022/05/16 04:02:08;;;;;;;7.75;2.75;;;;;;;-145.23;100.00;58621.06;5115811;28;20852;-52
2022/05/16 04:04:34;;;;;;;4.95;2.65;;;;;;;-145.23;100.00;58621.06;5108245;28;20903;-51
2022/05/16 04:07:01;;;;;;;7.07;2.72;;;;;;;-145.23;100.00;58621.06;5112654;28;20661;-52
2022/05/16 04:09:28;;;;;;;3.00;2.00;;;;;;;-145.23;100.00;58621.06;5107726;28;20668;-53
2022/05/16 04:11:55;;;;;;;5.35;2.38;;;;;;;-145.23;100.00;58621.06;5099177;28;20781;-51
2022/05/16 04:14:21;;;;;;;2.35;2.10;;;;;;;-145.23;100.00;58621.06;5100949;28;20275;-51
2022/05/16 04:16:48;;;;;;;6.15;2.40;;;;;;;-145.23;100.00;58621.06;5096387;28;20230;-52
2022/05/16 04:19:14;;;;;;;7.75;2.15;;;;;;;-145.23;100.00;58621.06;5101454;28;20700;-52
2022/05/16 04:21:40;;;;;;;6.47;3.50;;;;;;;-145.23;100.00;58621.06;5088356;28;20250;-57
2022/05/16 04:24:08;;;;;;;4.85;2.90;;;;;;;-145.23;100.00;58621.06;5073435;28;20223;-55
2022/05/16 04:26:36;;;;;;;5.03;2.78;;;;;;;-145.23;100.00;58621.06;5091873;28;20272;-52
2022/05/16 04:29:03;;;;;;;3.15;2.28;;;;;;;-145.23;100.00;58621.06;5097396;28;20226;-55
2022/05/16 04:31:29;;;;;;;5.60;2.80;;;;;;;-145.23;100.00;58621.06;5100502;28;20234;-52
2022/05/16 04:33:56;;;;;;;5.57;2.47;;;;;;;-145.23;100.00;58621.06;5087683;28;20238;-51
2022/05/16 04:36:22;;;;;;;7.10;2.95;;;;;;;-145.23;100.00;58621.06;5112634;28;20237;-52
2022/05/16 04:38:49;;;;;;;8.05;2.80;;;;;;;-145.23;100.00;58621.06;5093706;28;20229;-52
2022/05/16 04:44:00;;;;;;;4.13;2.85;;;;;;;-145.23;100.00;58621.06;5085098;28;20365;-52
2022/05/16 04:46:26;;;;;;;4.10;2.72;;;;;;;-145.23;100.00;58621.06;5087473;28;20234;-56
2022/05/16 04:48:53;;;;;;;3.63;2.35;;;;;;;-145.23;100.00;58621.06;5091218;28;20648;-52
2022/05/16 04:51:19;;;;;;;5.05;3.17;;;;;;;-145.23;100.00;58621.06;5095490;28;20252;-52
2022/05/16 04:53:45;;;;;;;4.93;2.97;;;;;;;-145.23;100.00;58621.06;5099075;28;20226;-53
2022/05/16 04:56:12;;;;;;;7.32;3.28;;;;;;;-145.23;100.00;58621.06;5084628;28;20656;-50
2022/05/16 04:58:38;;;;;;;4.40;3.10;;;;;;;-145.23;100.00;58621.06;5097167;27;20286;-52
2022/05/16 05:01:06;;;;;;;6.78;3.03;;;;;;;-145.23;100.00;58621.06;5103507;27;20238;-51
2022/05/16 05:03:32;;;;;;;5.82;3.13;;;;;;;-145.23;100.00;58621.06;5098032;28;20285;-51
2022/05/16 05:05:58;;;;;;;6.30;2.70;;;;;;;-145.23;100.00;58621.06;5100007;28;20222;-51
2022/05/16 05:08:25;;;;;;;5.63;2.90;;;;;;;-145.23;100.00;58621.06;5091363;28;20235;-53
2022/05/16 05:16:23;;;;;;;9.18;3.53;;;;;;;-145.23;100.00;58621.06;5103922;27;20264;-53
2022/05/16 05:18:50;;;;;;;4.40;3.92;;;;;;;-145.23;100.00;58621.06;5095874;28;20261;-53
2022/05/16 05:21:16;;;;;;;4.93;2.70;;;;;;;-145.23;100.00;58621.06;5099138;28;20254;-62
2022/05/16 05:23:43;;;;;;;5.20;2.92;;;;;;;-145.23;100.00;58621.06;5101205;28;20375;-52
2022/05/16 05:26:12;;;;;;;6.20;2.78;;;;;;;-145.23;100.00;58621.06;5090514;28;20227;-53
2022/05/16 05:28:39;;;;;;;8.00;3.00;;;;;;;-145.23;100.00;58621.06;5080735;28;20227;-52
2022/05/16 05:31:07;;;;;;;10.77;3.90;;;;;;;-145.23;100.00;58621.06;5097855;28;20230;-51
2022/05/16 05:33:35;;;;;;;7.15;2.67;;;;;;;-145.23;100.00;58621.06;5087000;28;20257;-51
2022/05/16 05:36:01;;;;;;;5.25;3.03;;;;;;;-145.23;100.00;58621.06;5108063;27;20223;-52
2022/05/16 05:38:28;;;;;;;4.20;2.58;;;;;;;-145.23;100.00;58621.06;5117304;27;20330;-54
2022/05/16 05:40:54;;;;;;;4.60;2.70;;;;;;;-145.23;100.00;58621.06;5121170;27;20299;-53
2022/05/16 05:43:21;;;;;;;8.10;3.50;;;;;;;-145.23;100.00;58621.06;5107469;28;20234;-58
2022/05/16 05:45:47;;;;;;;4.85;3.13;;;;;;;-145.23;100.00;58621.06;5083336;28;20231;-52
2022/05/16 05:48:13;;;;;;;5.70;3.17;;;;;;;-145.23;100.00;58621.06;5086874;28;20230;-53
2022/05/16 05:50:41;;;;;;;5.90;2.35;;;;;;;-145.23;100.00;58621.06;5095862;28;20303;-53
2022/05/16 05:53:07;;;;;;;5.75;3.13;;;;;;;-145.23;100.00;58621.06;5089288;28;20227;-54
2022/05/16 05:55:33;;;;;;;5.68;2.65;;;;;;;-145.23;100.00;58621.06;5105283;28;20879;-56
2022/05/16 05:58:00;;;;;;;6.00;2.25;;;;;;;-145.23;100.00;58621.06;5094407;28;20650;-53
2022/05/16 06:00:27;;;;;;;6.82;3.10;;;;;;;-145.23;100.00;58621.06;5093846;28;20283;-53
2022/05/16 06:02:53;;;;;;;5.63;2.95;;;;;;;-145.23;100.00;58621.06;5085649;28;20238;-52
2022/05/16 06:05:21;;;;;;;7.57;2.80;;;;;;;-145.23;100.00;58621.06;5081370;28;20223;-52
2022/05/16 06:07:49;;;;;;;5.18;2.50;;;;;;;-145.23;100.00;58621.06;5078480;28;20312;-53
2022/05/16 06:10:15;;;;;;;5.20;2.35;;;;;;;-145.23;100.00;58621.06;5089651;28;20246;-53
2022/05/16 06:12:42;;;;;;;4.28;2.65;;;;;;;-145.23;100.00;58621.06;5083861;28;20254;-53
2022/05/16 06:15:11;;;;;;;6.68;2.70;;;;;;;-145.23;100.00;58621.06;5082950;28;20222;-53
2022/05/16 06:17:37;;;;;;;5.65;2.45;;;;;;;-145.23;100.00;58621.06;5086264;28;20688;-53
2022/05/16 06:20:05;;;;;;;7.63;2.88;;;;;;;-145.23;100.00;58621.06;5080449;28;20320;-51
2022/05/16 06:22:34;;;;;;;6.00;3.15;;;;;;;-145.23;100.00;58621.06;5087600;28;20298;-53
2022/05/16 06:27:46;;;;;;;3.00;2.20;;;;;;;-145.23;100.00;58621.06;5098336;27;20709;-51
2022/05/16 06:30:13;;;;;;;5.35;2.97;;;;;;;-145.23;100.00;58621.06;5088429;28;20697;-51
2022/05/16 06:32:39;;;;;;;4.20;2.25;;;;;;;-145.23;100.00;58621.06;5089447;28;20690;-50
2022/05/16 06:35:06;;;;;;;3.78;2.85;;;;;;;-145.23;100.00;58621.06;5089178;28;20234;-51
2022/05/16 06:37:33;;;;;;;6.97;2.65;;;;;;;-145.23;100.00;58621.06;5082228;28;20306;-51
2022/05/16 06:39:59;;;;;;;4.25;2.42;;;;;;;-145.23;100.00;58621.06;5084382;28;20284;-51
2022/05/16 06:42:26;;;;;;;5.80;2.42;;;;;;;-145.23;100.00;58621.06;5080000;28;20308;-52
2022/05/16 06:44:54;;;;;;;8.02;2.70;;;;;;;-145.23;100.00;58621.06;5091100;28;20242;-53
2022/05/16 06:47:20;;;;;;;6.18;2.70;;;;;;;-145.23;100.00;58621.06;5088057;28;20279;-53
2022/05/16 06:49:46;;;;;;;11.95;3.33;;;;;;;-145.23;100.00;58621.06;5081804;28;20773;-52
2022/05/16 06:52:13;;;;;;;7.45;2.28;;;;;;;-145.23;100.00;58621.06;5076231;28;20219;-52
2022/05/16 06:54:39;;;;;;;3.55;2.40;;;;;;;-145.23;100.00;58621.06;5085515;28;20262;-53
2022/05/16 06:57:05;;;;;;;8.20;2.47;;;;;;;-145.23;100.00;58621.06;5088753;28;20753;-52
2022/05/16 06:59:33;;;;;;;6.35;2.20;;;;;;;-145.23;100.00;58621.06;5082460;28;20261;-52
2022/05/16 07:01:59;;;;;;;4.78;2.10;;;;;;;-145.23;100.00;58621.06;5092451;28;20943;-53
2022/05/16 07:04:26;;;;;;;6.35;2.47;;;;;;;-145.23;100.00;58621.06;5087979;28;20262;-52
2022/05/16 07:06:52;;;;;;;8.25;2.58;;;;;;;-145.23;100.00;58621.06;5085652;28;20728;-51
2022/05/16 07:09:19;;;;;;;5.22;2.40;;;;;;;-145.23;100.00;58621.06;5099124;28;20246;-52
2022/05/16 07:11:45;;;;;;;6.70;2.83;;;;;;;-145.23;100.00;58621.06;5097133;28;20780;-52
2022/05/16 07:14:11;;;;;;;7.05;3.33;;;;;;;-145.23;100.00;58621.06;5108497;28;20259;-52
2022/05/16 07:16:39;;;;;;;4.78;2.75;;;;;;;-145.23;100.00;58621.06;5108167;27;20234;-51
2022/05/16 07:19:06;;;;;;;3.97;2.17;;;;;;;-145.23;100.00;58621.06;5108108;28;20228;-52
2022/05/16 07:21:33;;;;;;;4.47;2.80;;;;;;;-145.23;100.00;58621.06;5109294;28;20409;-51
2022/05/16 07:23:59;;;;;;;5.80;3.00;;;;;;;-145.23;100.00;58621.06;5101700;28;20218;-52
2022/05/16 07:29:10;;;;;;;5.05;2.78;;;;;;;-145.23;100.00;58621.06;5105149;28;20232;-51
2022/05/16 07:31:37;;;;;;;5.43;3.08;;;;;;;-145.23;100.00;58621.06;5091489;28;20235;-53
2022/05/16 07:34:04;;;;;;;3.70;2.53;;;;;;;-145.23;100.00;58621.06;5078379;28;20242;-51
2022/05/16 07:36:31;;;;;;;4.40;2.72;;;;;;;-145.23;100.00;58621.06;5084483;28;20346;-51
2022/05/16 07:38:57;;;;;;;3.75;2.63;;;;;;;-145.23;100.00;58621.06;5084374;28;20223;-52
2022/05/16 07:41:23;;;;;;;5.95;2.45;;;;;;;-145.23;100.00;58621.06;5086313;28;20238;-52
2022/05/16 07:43:50;;;;;;;5.18;2.88;;;;;;;-145.23;100.00;58621.06;5088390;28;20307;-50
2022/05/16 07:46:16;;;;;;;6.00;3.00;;;;;;;-145.23;100.00;58621.06;5082666;28;20250;-52
2022/05/16 07:48:43;;;;;;;3.85;2.08;;;;;;;-145.23;100.00;58621.06;5079629;28;20777;-51
2022/05/16 07:51:11;;;;;;;7.93;2.92;;;;;;;-145.23;100.00;58621.06;5087704;28;20241;-58
2022/05/16 07:53:38;;;;;;;7.25;3.35;;;;;;;-145.23;100.00;58621.06;5089729;28;20242;-52
2022/05/16 07:56:05;;;;;;;5.15;2.70;;;;;;;-145.23;100.00;58621.06;5085955;28;20223;-51
2022/05/16 07:58:32;;;;;;;6.28;2.40;;;;;;;-145.23;100.00;58621.06;5079404;28;20300;-53
2022/05/16 08:00:58;;;;;;;4.72;3.20;;;;;;;-145.23;100.00;58621.06;5077193;28;20309;-52
2022/05/16 08:03:26;;;;;;;6.70;2.70;;;;;;;-145.23;100.00;58621.06;5091132;28;20261;-53
2022/05/16 08:05:53;;;;;;;5.38;2.42;;;;;;;-145.23;100.00;58621.06;5086252;28;20253;-52
2022/05/16 08:11:05;;;;;;;2.90;2.63;;;;;;;-145.23;100.00;58621.06;5097318;28;20722;-51
2022/05/16 08:13:32;;;;;;;6.03;2.90;;;;;;;-145.23;100.00;58621.06;5085564;28;20255;-51
2022/05/16 08:15:58;;;;;;;2.25;1.83;;;;;;;-145.23;100.00;58621.06;5071862;28;20223;-53
2022/05/16 08:18:25;;;;;;;2.67;2.17;;;;;;;-145.23;100.00;58621.06;5083149;28;20309;-51
2022/05/16 08:20:52;;;;;;;4.65;2.33;;;;;;;-145.23;100.00;58621.06;5076066;28;20767;-52
2022/05/16 08:23:22;;;;;;;3.40;2.05;;;;;;;-145.23;100.00;58621.06;5088107;28;20226;-51
2022/05/16 08:25:48;;;;;;;2.40;1.63;;;;;;;-145.23;100.00;58621.06;5089503;28;20236;-53
2022/05/16 08:28:15;;;;;;;3.83;2.42;;;;;;;-145.23;100.00;58621.06;5097023;28;20234;-53
2022/05/16 08:30:42;;;;;;;3.38;2.17;;;;;;;-145.23;100.00;58621.06;5101399;28;20244;-53
2022/05/16 08:33:09;;;;;;;3.38;2.75;;;;;;;-145.23;100.00;58621.06;5094374;28;20697;-52
2022/05/16 08:35:36;;;;;;;3.70;2.28;;;;;;;-145.23;100.00;58621.06;5086183;28;20234;-50
2022/05/16 08:40:55;;;;;;;3.95;2.08;;;;;;;-145.23;100.00;58621.06;5087051;28;20242;-53
2022/05/16 08:43:36;;;;;;;6.97;2.92;;;;;;;-145.23;100.00;58621.06;5082220;28;20237;-52
2022/05/16 08:46:05;;;;;;;5.13;2.53;;;;;;;-145.23;100.00;58621.06;5089915;28;20424;-53
2022/05/16 08:48:34;;;;;;;5.18;2.90;;;;;;;-145.23;100.00;58621.06;5087478;27;20978;-51
2022/05/16 08:51:05;;;;;;;2.75;1.98;;;;;;;-145.23;100.00;58621.06;5093679;28;20334;-57
2022/05/16 08:53:36;;;;;;;7.15;3.00;;;;;;;-145.23;100.00;58621.06;5086247;28;20238;-51
2022/05/16 08:56:06;;;;;;;4.30;2.33;;;;;;;-145.23;100.00;58621.06;5089186;28;20254;-51
2022/05/16 08:58:35;;;;;;;5.97;3.10;;;;;;;-145.23;100.00;58621.06;5082991;28;20312;-61
2022/05/16 09:01:05;;;;;;;4.78;2.58;;;;;;;-145.23;100.00;58621.06;5077424;28;20701;-53
2022/05/16 09:03:38;;;;;;;4.93;2.25;;;;;;;-145.23;100.00;58621.06;5086014;28;20313;-52
2022/05/16 09:06:12;;;;;;;8.05;2.30;;;;;;;-145.23;100.00;58621.06;5077606;28;20231;-51
2022/05/16 09:08:46;;;;;;;5.20;2.30;;;;;;;-145.23;100.00;58621.06;5080718;28;20238;-51
2022/05/16 09:11:17;;;;;;;4.35;2.67;;;;;;;-145.23;100.00;58621.06;5076845;28;20245;-54
2022/05/16 09:13:51;;;;;;;5.13;2.80;;;;;;;-145.23;100.00;58621.06;5087791;28;20962;-51
2022/05/16 09:16:38;;;;;;;3.20;2.40;;;;;;;-145.23;100.00;58621.06;5103069;27;20233;-51
2022/05/16 09:19:16;;;;;;;4.57;2.63;;;;;;;-145.23;100.00;58621.06;5092955;27;20238;-54
2022/05/16 09:21:49;;;;;;;4.45;2.45;;;;;;;-145.23;100.00;58621.06;5094582;28;20234;-51
2022/05/16 09:24:17;;;;;;;3.72;2.22;;;;;;;-145.23;100.00;58621.06;5102327;28;20601;-51
2022/05/16 09:26:51;;;;;;;4.05;2.50;;;;;;;-145.23;100.00;58621.06;5097749;28;20276;-51
2022/05/16 09:29:25;;;;;;;5.88;2.60;;;;;;;-145.23;100.00;58621.06;5099380;28;20268;-51
2022/05/16 09:31:55;;;;;;;3.58;2.15;;;;;;;-145.23;100.00;58621.06;5097899;28;20359;-52
2022/05/16 09:34:21;;;;;;;8.73;2.42;;;;;;;-145.23;100.00;58621.06;5107717;28;20321;-53
2022/05/16 09:36:49;;;;;;;5.72;2.65;;;;;;;-145.23;100.00;58621.06;5100201;27;20311;-51
2022/05/16 09:39:20;;;;;;;9.60;2.67;;;;;;;-145.23;100.00;58621.06;5100195;27;20234;-51
2022/05/16 09:41:55;;;;;;;5.93;2.28;;;;;;;-145.23;100.00;58621.06;5106034;28;20325;-53
2022/05/16 09:44:25;;;;;;;3.88;2.15;;;;;;;-145.23;100.00;58621.06;5105719;28;20237;-51
2022/05/16 09:47:26;;;;;;;3.53;1.80;;;;;;;-145.23;100.00;58621.06;5102184;28;20769;-52
2022/05/16 09:50:15;;;;;;;2.33;1.92;;;;;;;-145.23;100.00;58621.06;5101680;27;20227;-51
2022/05/16 09:52:46;;;;;;;4.93;2.80;;;;;;;-145.23;100.00;58621.06;5105025;28;20226;-51
2022/05/16 09:55:15;;;;;;;3.60;2.00;;;;;;;-145.23;100.00;58621.06;5105048;27;20313;-51
2022/05/16 09:57:49;;;;;;;3.10;2.40;;;;;;;-145.23;100.00;58621.06;5106946;28;20241;-50
2022/05/16 10:00:21;;;;;;;2.45;1.75;;;;;;;-145.23;100.00;58621.06;5103682;28;20217;-52
2022/05/16 10:02:59;;;;;;;2.65;1.85;;;;;;;-145.23;100.00;58621.06;5104681;27;20719;-53
2022/05/16 10:05:29;;;;;;;3.13;2.13;;;;;;;-145.23;100.00;58621.06;5103026;28;20364;-53
2022/05/16 10:08:02;;;;;;;3.50;2.30;;;;;;;-145.23;100.00;58621.06;5104465;27;20238;-52
2022/05/16 10:10:33;;;;;;;8.98;2.30;;;;;;;-145.23;100.00;58621.06;5105039;28;20241;-51
2022/05/16 10:13:00;;;;;;;6.95;2.83;;;;;;;-145.23;100.00;58621.06;5096952;28;20229;-54
2022/05/16 10:15:27;;;;;;;5.60;2.28;;;;;;;-145.23;100.00;58621.06;5079515;28;20238;-53
2022/05/16 10:17:56;;;;;;;5.07;1.70;;;;;;;-145.23;100.00;58621.06;5071921;28;20231;-52
2022/05/16 10:20:26;;;;;;;4.82;2.83;;;;;;;-145.23;100.00;58621.06;5083073;28;20254;-51
2022/05/16 10:22:56;;;;;;;3.55;1.80;;;;;;;-145.23;100.00;58621.06;5084813;28;20306;-51
2022/05/16 10:25:29;;;;;;;2.30;1.80;;;;;;;-145.23;100.00;58621.06;5098064;28;20222;-53
2022/05/16 10:27:57;;;;;;;4.82;2.20;;;;;;;-145.23;100.00;58621.06;5074873;28;21503;-51
2022/05/16 10:30:27;;;;;;;3.08;2.50;;;;;;;-145.23;100.00;58621.06;5079691;28;20229;-52
2022/05/16 10:35:45;;;;;;;5.03;1.85;;;;;;;-145.23;100.00;58621.06;5095257;28;20367;-55
2022/05/16 10:38:30;;;;;;;2.65;1.70;;;;;;;-145.23;100.00;58621.06;5084778;28;20241;-52
2022/05/16 10:40:59;;;;;;;4.28;3.00;;;;;;;-145.23;100.00;58621.06;5104601;28;20413;-51
2022/05/16 10:43:32;;;;;;;4.30;2.03;;;;;;;-145.23;100.00;58621.06;5097549;28;20496;-52
2022/05/16 10:46:03;;;;;;;7.05;2.65;;;;;;;-145.23;100.00;58621.06;5082390;28;20284;-51
2022/05/16 10:48:39;;;;;;;3.50;2.08;;;;;;;-145.23;100.00;58621.06;5077143;28;20279;-51
2022/05/16 10:51:10;;;;;;;1.88;1.60;;;;;;;-145.23;100.00;58621.06;5093065;27;20234;-57
2022/05/16 10:53:39;;;;;;;3.78;2.03;;;;;;;-145.23;100.00;58621.06;5080166;28;20288;-53
2022/05/16 10:56:11;;;;;;;2.28;2.08;;;;;;;-145.23;100.00;58621.06;5083771;28;20224;-52
2022/05/16 10:58:46;;;;;;;5.68;1.92;;;;;;;-145.23;100.00;58621.06;5088648;28;20588;-52
2022/05/16 11:01:20;;;;;;;3.85;2.08;;;;;;;-145.23;100.00;58621.06;5076527;28;20448;-51
2022/05/16 11:04:15;;;;;;;2.35;1.70;;;;;;;-145.23;100.00;58621.06;5098061;28;20712;-50
2022/05/16 11:06:56;;;;;;;3.42;1.63;;;;;;;-145.23;100.00;58621.06;5096250;28;20754;-51
2022/05/16 11:09:29;;;;;;;1.92;1.73;;;;;;;-145.23;100.00;58621.06;5079411;28;20430;-52
2022/05/16 11:12:00;;;;;;;4.77;1.90;;;;;;;-145.23;100.00;58621.06;5076161;28;20437;-51
2022/05/16 11:14:33;;;;;;;2.70;1.63;;;;;;;-145.23;100.00;58621.06;5072078;28;20252;-52
2022/05/16 11:17:06;;;;;;;3.88;2.15;;;;;;;-145.23;100.00;58621.06;5082898;28;20219;-51
2022/05/16 11:19:39;;;;;;;2.67;1.63;;;;;;;-145.23;100.00;58621.06;5081787;28;20834;-51
2022/05/16 11:22:13;;;;;;;4.00;1.80;;;;;;;-145.23;100.00;58621.06;5080113;28;20235;-52
2022/05/16 11:24:44;;;;;;;1.98;1.60;;;;;;;-145.23;100.00;58621.06;5085118;28;20321;-50
2022/05/16 11:27:16;;;;;;;2.78;1.92;;;;;;;-145.23;100.00;58621.06;5086571;28;20219;-51
2022/05/16 11:29:50;;;;;;;5.53;2.08;;;;;;;-145.23;100.00;58621.06;5079362;28;20231;-52
2022/05/16 11:32:28;;;;;;;3.63;1.67;;;;;;;-145.23;100.00;58621.06;5089457;28;20611;-52
2022/05/16 11:35:02;;;;;;;3.38;1.73;;;;;;;-145.23;100.00;58621.06;5077936;28;20248;-52
2022/05/16 11:37:42;;;;;;;1.65;1.48;;;;;;;-145.23;100.00;58621.06;5078911;28;20280;-52
2022/05/16 11:40:15;;;;;;;3.03;2.00;;;;;;;-145.23;100.00;58621.06;5073617;28;20226;-53
2022/05/16 11:42:47;;;;;;;4.65;2.08;;;;;;;-145.23;100.00;58621.06;5081614;28;20234;-51
2022/05/16 11:45:25;;;;;;;5.40;1.95;;;;;;;-145.23;100.00;58621.06;5083259;28;20230;-53
2022/05/16 11:48:00;;;;;;;2.65;1.92;;;;;;;-145.23;100.00;58621.06;5091952;28;20275;-53
2022/05/16 11:50:31;;;;;;;8.35;2.38;;;;;;;-145.23;100.00;58621.06;5087322;28;20303;-52